sensor_id;sensor_type;location;lat;lon;timestamp;temperature;humidity
35633;DHT22;21754;48.216;-1.628;2023-02-11T00:05:02;15.30;99.90
35633;DHT22;21754;48.216;-1.628;2023-02-11T00:07:28;9.00;99.90
35633;DHT22;21754;48.216;-1.628;2023-02-11T00:17:12;9.00;99.90
35633;DHT22;21754;48.216;-1.628;2023-02-11T00:19:38;8.90;99.90
35633;DHT22;21754;48.216;-1.628;2023-02-11T00:22:04;8.90;99.90
35633;DHT22;21754;48.216;-1.628;2023-02-11T00:24:30;8.90;99.90
35633;DHT22;21754;48.216;-1.628;2023-02-11T00:26:56;8.90;99.90
35633;DHT22;21754;48.216;-1.628;2023-02-11T00:29:21;8.90;99.90
35633;DHT22;21754;48.216;-1.628;2023-02-11T00:31:47;8.90;99.90
35633;DHT22;21754;48.216;-1.628;2023-02-11T00:34:13;9.20;99.90
35633;DHT22;21754;48.216;-1.628;2023-02-11T00:36:39;8.90;99.90
35633;DHT22;21754;48.216;-1.628;2023-02-11T02:37:23;7.40;99.90
35633;DHT22;21754;48.216;-1.628;2023-02-11T02:39:54;7.50;99.90
35633;DHT22;21754;48.216;-1.628;2023-02-11T02:42:22;7.60;99.90
35633;DHT22;21754;48.216;-1.628;2023-02-11T02:44:50;7.50;99.90
35633;DHT22;21754;48.216;-1.628;2023-02-11T02:47:17;7.50;99.90
35633;DHT22;21754;48.216;-1.628;2023-02-11T02:49:42;7.60;99.90
35633;DHT22;21754;48.216;-1.628;2023-02-11T02:57:54;7.50;99.90
35633;DHT22;21754;48.216;-1.628;2023-02-11T03:08:11;7.40;99.90
35633;DHT22;21754;48.216;-1.628;2023-02-11T03:10:46;7.40;99.90
35633;DHT22;21754;48.216;-1.628;2023-02-11T03:13:13;7.30;99.90
35633;DHT22;21754;48.216;-1.628;2023-02-11T03:15:46;7.30;99.90
35633;DHT22;21754;48.216;-1.628;2023-02-11T03:18:14;7.20;99.90
35633;DHT22;21754;48.216;-1.628;2023-02-11T03:20:44;7.30;99.90
35633;DHT22;21754;48.216;-1.628;2023-02-11T03:23:31;7.40;99.90
35633;DHT22;21754;48.216;-1.628;2023-02-11T03:26:25;7.30;99.90
35633;DHT22;21754;48.216;-1.628;2023-02-11T03:29:09;7.40;99.90
35633;DHT22;21754;48.216;-1.628;2023-02-11T03:32:28;7.40;99.90
35633;DHT22;21754;48.216;-1.628;2023-02-11T03:40:16;7.50;99.90
35633;DHT22;21754;48.216;-1.628;2023-02-11T03:42:58;7.40;99.90
35633;DHT22;21754;48.216;-1.628;2023-02-11T03:45:26;7.50;99.90
35633;DHT22;21754;48.216;-1.628;2023-02-11T03:48:00;7.40;99.90
35633;DHT22;21754;48.216;-1.628;2023-02-11T03:50:29;7.40;99.90
35633;DHT22;21754;48.216;-1.628;2023-02-11T03:52:56;7.40;99.90
35633;DHT22;21754;48.216;-1.628;2023-02-11T03:55:23;7.40;99.90
35633;DHT22;21754;48.216;-1.628;2023-02-11T03:57:50;7.40;99.90
35633;DHT22;21754;48.216;-1.628;2023-02-11T04:00:16;7.40;99.90
35633;DHT22;21754;48.216;-1.628;2023-02-11T04:02:43;7.40;99.90
35633;DHT22;21754;48.216;-1.628;2023-02-11T04:05:11;7.40;99.90
35633;DHT22;21754;48.216;-1.628;2023-02-11T04:07:37;7.40;99.90
35633;DHT22;21754;48.216;-1.628;2023-02-11T04:10:03;7.40;99.90
35633;DHT22;21754;48.216;-1.628;2023-02-11T04:12:29;7.40;99.90
35633;DHT22;21754;48.216;-1.628;2023-02-11T04:14:54;7.60;99.90
35633;DHT22;21754;48.216;-1.628;2023-02-11T04:17:20;7.40;99.90
35633;DHT22;21754;48.216;-1.628;2023-02-11T04:19:46;7.60;99.90
35633;DHT22;21754;48.216;-1.628;2023-02-11T04:22:12;7.70;99.90
35633;DHT22;21754;48.216;-1.628;2023-02-11T04:24:37;7.40;99.90
35633;DHT22;21754;48.216;-1.628;2023-02-11T04:27:03;7.40;99.90
35633;DHT22;21754;48.216;-1.628;2023-02-11T04:29:29;7.50;99.90
35633;DHT22;21754;48.216;-1.628;2023-02-11T04:31:54;7.50;99.90
35633;DHT22;21754;48.216;-1.628;2023-02-11T04:34:20;7.50;99.90
35633;DHT22;21754;48.216;-1.628;2023-02-11T04:41:38;7.50;99.90
35633;DHT22;21754;48.216;-1.628;2023-02-11T04:44:04;6.90;99.90
35633;DHT22;21754;48.216;-1.628;2023-02-11T04:46:30;7.40;99.90
35633;DHT22;21754;48.216;-1.628;2023-02-11T04:58:40;7.10;99.90
35633;DHT22;21754;48.216;-1.628;2023-02-11T05:01:11;7.10;99.90
35633;DHT22;21754;48.216;-1.628;2023-02-11T05:03:37;6.90;99.90
35633;DHT22;21754;48.216;-1.628;2023-02-11T05:06:03;6.90;99.90
35633;DHT22;21754;48.216;-1.628;2023-02-11T05:08:29;6.90;99.90
35633;DHT22;21754;48.216;-1.628;2023-02-11T05:10:55;6.90;99.90
35633;DHT22;21754;48.216;-1.628;2023-02-11T05:13:21;6.90;99.90
35633;DHT22;21754;48.216;-1.628;2023-02-11T05:15:47;6.90;99.90
35633;DHT22;21754;48.216;-1.628;2023-02-11T05:18:12;6.80;99.90
35633;DHT22;21754;48.216;-1.628;2023-02-11T05:20:42;6.70;99.90
35633;DHT22;21754;48.216;-1.628;2023-02-11T05:23:07;6.70;99.90
35633;DHT22;21754;48.216;-1.628;2023-02-11T05:25:33;6.70;99.90
35633;DHT22;21754;48.216;-1.628;2023-02-11T05:27:59;6.70;99.90
35633;DHT22;21754;48.216;-1.628;2023-02-11T05:30:25;7.00;99.90
35633;DHT22;21754;48.216;-1.628;2023-02-11T05:32:50;6.70;99.90
35633;DHT22;21754;48.216;-1.628;2023-02-11T05:35:17;6.90;99.90
35633;DHT22;21754;48.216;-1.628;2023-02-11T05:37:42;6.70;99.90
35633;DHT22;21754;48.216;-1.628;2023-02-11T05:40:08;6.90;99.90
35633;DHT22;21754;48.216;-1.628;2023-02-11T05:42:34;6.70;99.90
35633;DHT22;21754;48.216;-1.628;2023-02-11T05:45:00;6.70;99.90
35633;DHT22;21754;48.216;-1.628;2023-02-11T05:47:26;6.60;99.90
35633;DHT22;21754;48.216;-1.628;2023-02-11T05:49:52;6.70;99.90
35633;DHT22;21754;48.216;-1.628;2023-02-11T05:52:19;6.90;99.90
35633;DHT22;21754;48.216;-1.628;2023-02-11T05:54:45;6.60;99.90
35633;DHT22;21754;48.216;-1.628;2023-02-11T05:57:11;6.60;99.90
35633;DHT22;21754;48.216;-1.628;2023-02-11T05:59:37;6.90;99.90
35633;DHT22;21754;48.216;-1.628;2023-02-11T06:02:02;6.50;99.90
35633;DHT22;21754;48.216;-1.628;2023-02-11T06:04:28;6.60;99.90
35633;DHT22;21754;48.216;-1.628;2023-02-11T06:06:54;6.50;99.90
35633;DHT22;21754;48.216;-1.628;2023-02-11T06:09:19;6.50;99.90
35633;DHT22;21754;48.216;-1.628;2023-02-11T06:11:45;6.50;99.90
35633;DHT22;21754;48.216;-1.628;2023-02-11T06:14:10;6.50;99.90
35633;DHT22;21754;48.216;-1.628;2023-02-11T06:16:36;6.80;99.90
35633;DHT22;21754;48.216;-1.628;2023-02-11T06:19:02;6.80;99.90
35633;DHT22;21754;48.216;-1.628;2023-02-11T06:31:14;6.80;99.90
35633;DHT22;21754;48.216;-1.628;2023-02-11T06:33:40;6.30;99.90
35633;DHT22;21754;48.216;-1.628;2023-02-11T06:36:19;6.30;99.90
35633;DHT22;21754;48.216;-1.628;2023-02-11T06:38:45;6.60;99.90
35633;DHT22;21754;48.216;-1.628;2023-02-11T10:12:44;8.80;99.90
35633;DHT22;21754;48.216;-1.628;2023-02-11T10:18:14;8.90;99.90
35633;DHT22;21754;48.216;-1.628;2023-02-11T10:25:59;9.10;99.90
35633;DHT22;21754;48.216;-1.628;2023-02-11T10:28:33;9.30;99.90
35633;DHT22;21754;48.216;-1.628;2023-02-11T10:31:03;9.30;99.90
35633;DHT22;21754;48.216;-1.628;2023-02-11T10:38:31;9.40;99.90
35633;DHT22;21754;48.216;-1.628;2023-02-11T10:40:58;9.60;99.90
35633;DHT22;21754;48.216;-1.628;2023-02-11T10:43:27;9.70;99.90
35633;DHT22;21754;48.216;-1.628;2023-02-11T10:45:55;9.70;99.90
35633;DHT22;21754;48.216;-1.628;2023-02-11T10:48:40;9.70;99.90
35633;DHT22;21754;48.216;-1.628;2023-02-11T10:53:35;9.70;99.90
35633;DHT22;21754;48.216;-1.628;2023-02-11T10:56:02;9.70;99.90
35633;DHT22;21754;48.216;-1.628;2023-02-11T10:58:33;9.70;99.90
35633;DHT22;21754;48.216;-1.628;2023-02-11T11:01:00;9.70;99.90
35633;DHT22;21754;48.216;-1.628;2023-02-11T11:03:30;9.80;99.90
35633;DHT22;21754;48.216;-1.628;2023-02-11T11:06:01;9.80;99.90
35633;DHT22;21754;48.216;-1.628;2023-02-11T11:08:43;9.90;99.90
35633;DHT22;21754;48.216;-1.628;2023-02-11T11:11:13;10.00;99.90
35633;DHT22;21754;48.216;-1.628;2023-02-11T11:14:00;10.00;99.90
35633;DHT22;21754;48.216;-1.628;2023-02-11T11:16:29;10.10;99.90
35633;DHT22;21754;48.216;-1.628;2023-02-11T11:21:44;10.30;99.90
35633;DHT22;21754;48.216;-1.628;2023-02-11T11:31:54;10.60;99.90
35633;DHT22;21754;48.216;-1.628;2023-02-11T11:34:31;10.70;99.90
35633;DHT22;21754;48.216;-1.628;2023-02-11T11:36:59;10.80;99.90
35633;DHT22;21754;48.216;-1.628;2023-02-11T11:39:29;10.80;99.90
35633;DHT22;21754;48.216;-1.628;2023-02-11T11:42:04;10.90;99.90
35633;DHT22;21754;48.216;-1.628;2023-02-11T11:44:35;11.00;99.90
35633;DHT22;21754;48.216;-1.628;2023-02-11T11:50:24;11.10;99.90
35633;DHT22;21754;48.216;-1.628;2023-02-11T11:55:30;11.10;99.90
35633;DHT22;21754;48.216;-1.628;2023-02-11T11:57:57;11.10;99.90
35633;DHT22;21754;48.216;-1.628;2023-02-11T12:00:32;11.30;99.90
35633;DHT22;21754;48.216;-1.628;2023-02-11T12:10:47;11.70;99.90
35633;DHT22;21754;48.216;-1.628;2023-02-11T12:16:30;11.80;99.90
35633;DHT22;21754;48.216;-1.628;2023-02-11T12:22:02;12.10;99.90
35633;DHT22;21754;48.216;-1.628;2023-02-11T12:24:53;12.10;99.90
35633;DHT22;21754;48.216;-1.628;2023-02-11T13:08:45;12.20;99.90
35633;DHT22;21754;48.216;-1.628;2023-02-11T13:11:24;13.70;99.90
35633;DHT22;21754;48.216;-1.628;2023-02-11T13:14:11;13.70;99.90
35633;DHT22;21754;48.216;-1.628;2023-02-11T13:16:44;13.80;99.90
35633;DHT22;21754;48.216;-1.628;2023-02-11T13:30:36;13.80;99.90
35633;DHT22;21754;48.216;-1.628;2023-02-11T13:35:45;13.80;99.90
35633;DHT22;21754;48.216;-1.628;2023-02-11T13:38:23;13.80;99.90
35633;DHT22;21754;48.216;-1.628;2023-02-11T13:43:57;13.80;99.90
35633;DHT22;21754;48.216;-1.628;2023-02-11T13:46:24;13.70;99.90
35633;DHT22;21754;48.216;-1.628;2023-02-11T13:48:52;13.80;99.90
35633;DHT22;21754;48.216;-1.628;2023-02-11T19:15:41;13.80;99.90
35633;DHT22;21754;48.216;-1.628;2023-02-11T19:18:06;9.60;99.90
35633;DHT22;21754;48.216;-1.628;2023-02-11T19:49:52;9.50;99.90
35633;DHT22;21754;48.216;-1.628;2023-02-11T19:52:17;9.00;99.90
35633;DHT22;21754;48.216;-1.628;2023-02-11T19:54:43;9.00;99.90
35633;DHT22;21754;48.216;-1.628;2023-02-11T20:28:59;9.00;99.90
35633;DHT22;21754;48.216;-1.628;2023-02-11T20:31:30;8.60;99.90
35633;DHT22;21754;48.216;-1.628;2023-02-11T20:33:59;8.60;99.90
35633;DHT22;21754;48.216;-1.628;2023-02-11T20:36:28;8.60;99.90
35633;DHT22;21754;48.216;-1.628;2023-02-11T20:38:57;8.70;99.90
35633;DHT22;21754;48.216;-1.628;2023-02-11T20:41:26;8.60;99.90
35633;DHT22;21754;48.216;-1.628;2023-02-11T20:43:54;8.80;99.90
35633;DHT22;21754;48.216;-1.628;2023-02-11T20:46:22;8.60;99.90
35633;DHT22;21754;48.216;-1.628;2023-02-11T20:48:49;8.60;99.90
35633;DHT22;21754;48.216;-1.628;2023-02-11T20:51:18;8.50;99.90
35633;DHT22;21754;48.216;-1.628;2023-02-11T21:08:41;8.50;99.90
